createdAt,value
2023-05-13T00:02:09.688Z,58.81
2023-05-13T00:04:56.465Z,58.45
2023-05-13T00:07:42.616Z,58.63
2023-05-13T00:10:28.700Z,58.89
2023-05-13T00:13:14.236Z,58.97
2023-05-13T00:16:00.597Z,59.01
2023-05-13T00:18:46.542Z,59.01
2023-05-13T00:21:33.848Z,59.21
2023-05-13T00:24:20.484Z,59.51
2023-05-13T00:27:06.657Z,59.77
2023-05-13T00:29:53.012Z,59.73
2023-05-13T00:32:39.296Z,59.73
2023-05-13T00:35:27.502Z,59.84
2023-05-13T00:38:13.865Z,59.78
2023-05-13T00:41:00.295Z,60.09
2023-05-13T00:43:46.918Z,60.02
2023-05-13T00:46:33.512Z,60.40
2023-05-13T00:49:19.291Z,60.41
2023-05-13T00:52:05.703Z,60.64
2023-05-13T00:54:51.862Z,60.67
2023-05-13T00:57:38.487Z,60.71
2023-05-13T01:00:25.218Z,61.01
2023-05-13T01:03:14.453Z,61.32
2023-05-13T01:06:28.176Z,61.93
2023-05-13T01:09:55.385Z,61.88
2023-05-13T01:12:43.951Z,61.73
2023-05-13T01:15:30.180Z,61.57
2023-05-13T01:18:20.878Z,61.71
2023-05-13T01:21:08.404Z,61.69
2023-05-13T01:23:55.758Z,61.62
2023-05-13T01:26:41.618Z,61.63
2023-05-13T01:29:28.147Z,61.88
2023-05-13T01:32:14.881Z,62.01
2023-05-13T01:35:01.432Z,61.97
2023-05-13T01:37:50.289Z,61.97
2023-05-13T01:40:38.413Z,62.05
2023-05-13T01:43:26.408Z,62.56
2023-05-13T01:46:13.618Z,62.59
2023-05-13T01:48:59.537Z,63.03
2023-05-13T01:51:46.100Z,63.44
2023-05-13T01:54:32.420Z,62.40
2023-05-13T01:57:24.053Z,62.54
2023-05-13T02:00:10.742Z,63.02
2023-05-13T02:03:00.379Z,63.24
2023-05-13T02:05:47.701Z,63.16
2023-05-13T02:08:34.112Z,63.31
2023-05-13T02:11:20.082Z,64.11
2023-05-13T02:14:06.227Z,63.77
2023-05-13T02:16:54.189Z,64.06
2023-05-13T02:19:41.410Z,64.04
2023-05-13T02:22:28.178Z,64.25
2023-05-13T02:25:14.495Z,64.96
2023-05-13T02:28:00.628Z,64.14
2023-05-13T02:30:47.282Z,64.32
2023-05-13T02:33:33.653Z,65.12
2023-05-13T02:36:19.975Z,64.81
2023-05-13T02:39:07.153Z,65.29
2023-05-13T02:41:54.198Z,64.79
2023-05-13T02:44:41.130Z,65.00
2023-05-13T02:47:29.517Z,65.26
2023-05-13T02:50:20.441Z,65.42
2023-05-13T02:53:07.365Z,65.48
2023-05-13T02:55:56.038Z,64.82
2023-05-13T02:58:44.961Z,65.49
2023-05-13T03:01:31.445Z,65.35
2023-05-13T03:04:17.875Z,64.99
2023-05-13T03:07:03.586Z,65.20
2023-05-13T03:09:50.096Z,64.78
2023-05-13T03:12:36.281Z,64.51
2023-05-13T03:15:22.516Z,64.31
2023-05-13T03:18:09.083Z,64.83
2023-05-13T03:20:55.547Z,65.49
2023-05-13T03:23:42.659Z,65.03
2023-05-13T03:26:29.412Z,64.91
2023-05-13T03:29:16.058Z,64.63
2023-05-13T03:32:06.554Z,64.82
2023-05-13T03:34:53.696Z,65.20
2023-05-13T03:37:40.060Z,65.28
2023-05-13T03:40:27.549Z,65.41
2023-05-13T03:43:14.164Z,65.41
2023-05-13T03:46:04.816Z,65.49
2023-05-13T03:48:51.122Z,65.69
2023-05-13T03:51:37.347Z,65.48
2023-05-13T03:54:24.953Z,65.35
2023-05-13T03:57:10.622Z,65.39
2023-05-13T03:59:57.067Z,65.69
2023-05-13T04:02:43.496Z,65.38
2023-05-13T04:05:31.194Z,65.49
2023-05-13T04:08:17.434Z,65.10
2023-05-13T04:11:04.053Z,64.38
2023-05-13T04:13:50.195Z,64.26
2023-05-13T04:16:36.124Z,63.89
2023-05-13T04:19:22.034Z,63.62
2023-05-13T04:22:08.648Z,63.21
2023-05-13T04:24:56.653Z,62.74
2023-05-13T04:27:43.156Z,62.47
2023-05-13T04:30:36.324Z,62.02
2023-05-13T04:33:23.215Z,61.33
2023-05-13T04:36:09.370Z,60.96
2023-05-13T04:38:55.699Z,60.53
2023-05-13T04:41:42.202Z,59.90
2023-05-13T04:44:28.064Z,59.04
2023-05-13T04:47:13.916Z,58.58
2023-05-13T04:50:00.038Z,58.41
2023-05-13T04:52:47.669Z,57.81
2023-05-13T04:55:39.033Z,56.86
2023-05-13T04:58:25.310Z,56.77
2023-05-13T05:01:11.895Z,56.29
2023-05-13T05:03:58.453Z,55.70
2023-05-13T05:06:45.001Z,55.33
2023-05-13T05:09:31.167Z,55.12
2023-05-13T05:12:19.134Z,54.54
2023-05-13T05:15:06.235Z,53.69
2023-05-13T05:17:52.747Z,53.92
2023-05-13T05:20:38.939Z,53.70
2023-05-13T05:23:28.798Z,53.37
2023-05-13T05:26:15.360Z,52.95
2023-05-13T05:29:02.247Z,52.87
2023-05-13T05:31:49.171Z,52.95
2023-05-13T05:34:35.395Z,52.41
2023-05-13T05:37:21.453Z,52.40
2023-05-13T05:40:08.505Z,51.93
2023-05-13T05:42:58.546Z,51.69
2023-05-13T05:45:46.258Z,51.43
2023-05-13T05:48:36.858Z,51.45
2023-05-13T05:51:23.781Z,51.15
2023-05-13T05:54:10.040Z,50.99
2023-05-13T05:56:57.268Z,50.97
2023-05-13T05:59:43.309Z,51.23
2023-05-13T06:02:29.915Z,51.18
2023-05-13T06:05:16.594Z,51.47
2023-05-13T06:08:03.925Z,51.35
2023-05-13T06:10:50.083Z,51.25
2023-05-13T06:13:36.608Z,51.25
2023-05-13T06:16:23.495Z,50.86
2023-05-13T06:19:11.355Z,50.72
2023-05-13T06:21:57.605Z,50.31
2023-05-13T06:24:44.918Z,49.92
2023-05-13T06:27:34.180Z,49.68
2023-05-13T06:30:21.801Z,49.10
2023-05-13T06:33:10.564Z,49.24
2023-05-13T06:35:56.907Z,48.80
2023-05-13T06:38:44.003Z,48.49
2023-05-13T06:41:30.347Z,48.09
2023-05-13T06:44:22.270Z,47.13
2023-05-13T06:47:10.481Z,45.73
2023-05-13T06:49:57.408Z,45.13
2023-05-13T06:52:43.643Z,43.63
2023-05-13T06:55:29.850Z,42.42
2023-05-13T06:58:15.808Z,41.37
2023-05-13T07:01:02.322Z,40.01
2023-05-13T07:03:49.109Z,39.64
2023-05-13T07:06:35.504Z,40.11
2023-05-13T07:09:21.800Z,39.79
2023-05-13T07:12:07.587Z,38.62
2023-05-13T07:14:54.512Z,38.97
2023-05-13T07:17:41.156Z,38.07
2023-05-13T07:20:27.785Z,37.46
2023-05-13T07:23:14.462Z,37.73
2023-05-13T07:26:01.064Z,37.57
2023-05-13T07:28:46.711Z,37.43
2023-05-13T07:31:33.558Z,37.62
2023-05-13T07:34:19.840Z,37.38
2023-05-13T07:37:06.048Z,37.57
2023-05-13T07:39:53.615Z,37.60
2023-05-13T07:42:40.664Z,37.20
2023-05-13T07:45:26.870Z,36.53
2023-05-13T07:48:13.203Z,35.90
2023-05-13T07:50:59.899Z,35.66
2023-05-13T07:53:47.234Z,35.34
2023-05-13T07:56:33.739Z,35.07
2023-05-13T07:59:20.819Z,35.05
2023-05-13T08:02:07.966Z,35.05
2023-05-13T08:04:54.465Z,35.16
2023-05-13T08:07:40.564Z,34.19
2023-05-13T08:10:27.421Z,34.50
2023-05-13T08:13:13.668Z,34.02
2023-05-13T08:16:03.612Z,33.89
2023-05-13T08:18:49.722Z,34.19
2023-05-13T08:21:37.225Z,34.06
2023-05-13T08:24:22.833Z,34.38
2023-05-13T08:27:09.494Z,34.07
2023-05-13T08:29:55.103Z,33.43
2023-05-13T08:32:41.492Z,33.75
2023-05-13T08:35:27.644Z,34.01
2023-05-13T08:38:13.961Z,34.03
2023-05-13T08:41:00.264Z,33.89
2023-05-13T08:43:47.423Z,33.75
2023-05-13T08:46:35.199Z,33.99
2023-05-13T08:49:21.818Z,33.91
2023-05-13T08:52:08.134Z,34.16
2023-05-13T08:54:54.826Z,34.02
2023-05-13T08:57:40.789Z,34.13
2023-05-13T09:00:27.305Z,33.96
2023-05-13T09:03:14.019Z,33.79
2023-05-13T09:06:01.925Z,33.58
2023-05-13T09:08:48.806Z,33.19
2023-05-13T09:11:35.194Z,33.69
2023-05-13T09:14:21.152Z,32.76
2023-05-13T09:17:07.990Z,33.24
2023-05-13T09:19:54.174Z,33.00
2023-05-13T09:22:51.806Z,32.78
2023-05-13T09:25:38.989Z,32.63
2023-05-13T09:28:26.410Z,31.76
2023-05-13T09:31:12.820Z,31.96
2023-05-13T09:33:59.269Z,31.74
2023-05-13T09:36:45.597Z,32.08
2023-05-13T09:39:39.793Z,31.13
2023-05-13T09:42:25.432Z,31.08
2023-05-13T09:45:16.409Z,31.56
2023-05-13T09:48:02.928Z,30.48
2023-05-13T09:50:50.594Z,31.22
2023-05-13T09:53:36.783Z,31.46
2023-05-13T09:56:24.154Z,30.52
2023-05-13T09:59:10.320Z,30.61
2023-05-13T10:02:00.292Z,30.54
2023-05-13T10:04:46.792Z,29.89
2023-05-13T10:07:34.877Z,30.78
2023-05-13T10:10:22.117Z,30.71
2023-05-13T10:13:11.069Z,31.40
2023-05-13T10:15:57.799Z,30.40
2023-05-13T10:18:44.418Z,31.17
2023-05-13T10:21:31.342Z,30.52
2023-05-13T10:24:17.793Z,30.49
2023-05-13T10:27:04.978Z,31.09
2023-05-13T10:29:52.563Z,30.78
2023-05-13T10:32:40.153Z,31.00
2023-05-13T10:35:31.012Z,30.92
2023-05-13T10:38:28.715Z,30.75
2023-05-13T10:41:40.196Z,29.92
2023-05-13T10:44:26.358Z,30.27
2023-05-13T10:47:13.906Z,29.73
2023-05-13T10:50:05.187Z,29.69
2023-05-13T10:52:56.566Z,30.62
2023-05-13T10:55:46.153Z,30.67
2023-05-13T10:58:33.973Z,31.38
2023-05-13T11:01:28.971Z,30.16
2023-05-13T11:04:18.490Z,29.47
2023-05-13T11:07:15.400Z,29.50
2023-05-13T11:10:02.026Z,30.16
2023-05-13T11:13:16.260Z,30.73
2023-05-13T11:16:06.517Z,30.40
2023-05-13T11:18:53.551Z,31.00
2023-05-13T11:21:39.916Z,30.97
2023-05-13T11:24:26.637Z,31.21
2023-05-13T11:27:20.311Z,30.53
2023-05-13T11:30:23.826Z,31.10
2023-05-13T11:33:12.538Z,30.28
2023-05-13T11:35:59.167Z,30.44
2023-05-13T11:38:46.149Z,30.71
2023-05-13T11:41:34.156Z,30.79
2023-05-13T11:44:22.408Z,30.99
2023-05-13T11:47:09.241Z,30.79
2023-05-13T11:49:55.960Z,30.39
2023-05-13T11:52:42.219Z,30.66
2023-05-13T11:55:31.333Z,30.78
2023-05-13T11:58:17.926Z,31.16
2023-05-13T12:01:03.762Z,31.47
2023-05-13T12:03:50.102Z,31.27
2023-05-13T12:06:44.310Z,31.36
2023-05-13T12:09:30.687Z,31.58
2023-05-13T12:12:17.716Z,31.38
2023-05-13T12:15:06.658Z,31.48
2023-05-13T12:17:53.509Z,31.80
2023-05-13T12:20:39.547Z,31.56
2023-05-13T12:23:25.823Z,31.15
2023-05-13T12:26:12.291Z,31.39
2023-05-13T12:29:01.385Z,31.27
2023-05-13T12:32:04.781Z,31.20
2023-05-13T12:34:51.633Z,31.53
2023-05-13T12:37:37.826Z,31.12
2023-05-13T12:40:27.157Z,31.24
2023-05-13T12:43:13.470Z,31.29
2023-05-13T12:46:00.145Z,30.41
2023-05-13T12:48:46.105Z,31.17
2023-05-13T12:51:35.904Z,30.96
2023-05-13T12:54:22.029Z,31.31
2023-05-13T12:57:11.101Z,31.43
2023-05-13T12:59:57.249Z,31.24
2023-05-13T13:02:43.734Z,31.59
2023-05-13T13:05:29.872Z,31.80
2023-05-13T13:08:16.201Z,31.68
2023-05-13T13:11:02.255Z,31.85
2023-05-13T13:13:50.013Z,31.55
2023-05-13T13:16:36.170Z,31.59
2023-05-13T13:19:22.859Z,31.71
2023-05-13T13:22:09.335Z,31.79
2023-05-13T13:24:56.038Z,31.88
2023-05-13T13:27:42.162Z,32.02
2023-05-13T13:30:29.591Z,31.75
2023-05-13T13:33:16.563Z,32.04
2023-05-13T13:36:03.844Z,32.31
2023-05-13T13:38:50.123Z,32.02
2023-05-13T13:41:37.379Z,32.29
2023-05-13T13:44:23.532Z,31.56
2023-05-13T13:47:10.218Z,31.93
2023-05-13T13:49:56.351Z,31.95
2023-05-13T13:52:42.595Z,31.50
2023-05-13T13:55:29.256Z,31.21
2023-05-13T13:58:15.883Z,31.51
2023-05-13T14:01:02.261Z,31.41
2023-05-13T14:03:50.848Z,31.62
2023-05-13T14:06:37.162Z,32.02
2023-05-13T14:09:23.715Z,32.22
2023-05-13T14:12:10.111Z,31.99
2023-05-13T14:14:57.624Z,31.60
2023-05-13T14:17:44.274Z,31.70
2023-05-13T14:20:30.642Z,31.44
2023-05-13T14:23:18.414Z,31.62
2023-05-13T14:26:07.623Z,31.65
2023-05-13T14:28:54.871Z,31.45
2023-05-13T14:31:41.350Z,31.35
2023-05-13T14:34:27.304Z,31.88
2023-05-13T14:37:13.914Z,31.93
2023-05-13T14:39:59.879Z,32.18
2023-05-13T14:42:46.509Z,32.39
2023-05-13T14:45:33.023Z,32.26
2023-05-13T14:48:19.752Z,32.21
2023-05-13T14:51:05.834Z,32.52
2023-05-13T14:53:51.699Z,32.08
2023-05-13T14:56:38.045Z,31.89
2023-05-13T14:59:24.552Z,31.92
2023-05-13T15:02:10.834Z,32.45
2023-05-13T15:04:57.487Z,32.35
2023-05-13T15:07:43.147Z,32.68
2023-05-13T15:10:29.605Z,32.59
2023-05-13T15:13:15.914Z,32.58
2023-05-13T15:16:03.810Z,32.50
2023-05-13T15:18:50.455Z,32.45
2023-05-13T15:21:36.778Z,32.41
2023-05-13T15:24:22.700Z,32.48
2023-05-13T15:27:08.838Z,32.73
2023-05-13T15:29:55.190Z,32.96
2023-05-13T15:32:41.729Z,32.77
2023-05-13T15:35:27.572Z,32.89
2023-05-13T15:38:14.151Z,32.43
2023-05-13T15:41:01.207Z,32.46
2023-05-13T15:43:49.076Z,32.53
2023-05-13T15:46:35.745Z,32.58
2023-05-13T15:49:22.937Z,32.71
2023-05-13T15:52:09.037Z,32.81
2023-05-13T15:54:55.085Z,32.97
2023-05-13T15:57:41.282Z,32.74
2023-05-13T16:00:27.943Z,32.71
2023-05-13T16:03:14.666Z,32.73
2023-05-13T16:06:00.912Z,32.69
2023-05-13T16:08:46.648Z,32.52
2023-05-13T16:11:32.815Z,32.19
2023-05-13T16:14:19.596Z,32.41
2023-05-13T16:17:05.958Z,32.39
2023-05-13T16:19:52.560Z,32.57
2023-05-13T16:22:39.203Z,32.80
2023-05-13T16:25:25.149Z,32.88
2023-05-13T16:28:12.160Z,32.86
2023-05-13T16:30:58.752Z,32.90
2023-05-13T16:33:46.444Z,32.82
2023-05-13T16:36:32.620Z,32.89
2023-05-13T16:39:19.278Z,33.06
2023-05-13T16:42:06.645Z,33.60
2023-05-13T16:44:53.022Z,33.32
2023-05-13T16:47:39.326Z,33.26
2023-05-13T16:50:28.063Z,33.67
2023-05-13T16:53:13.889Z,33.83
2023-05-13T16:56:00.938Z,33.77
2023-05-13T16:58:47.122Z,33.90
2023-05-13T17:01:36.840Z,33.89
2023-05-13T17:04:24.139Z,33.91
2023-05-13T17:07:10.681Z,34.01
2023-05-13T17:09:56.837Z,34.28
2023-05-13T17:12:43.448Z,34.38
2023-05-13T17:15:29.556Z,34.62
2023-05-13T17:18:15.965Z,34.56
2023-05-13T17:21:04.640Z,34.52
2023-05-13T17:23:51.024Z,34.85
2023-05-13T17:26:38.888Z,35.05
2023-05-13T17:29:25.951Z,35.11
2023-05-13T17:32:12.131Z,35.27
2023-05-13T17:34:59.311Z,35.35
2023-05-13T17:37:45.407Z,35.37
2023-05-13T17:40:31.312Z,35.23
2023-05-13T17:43:17.401Z,35.62
2023-05-13T17:46:03.901Z,35.30
2023-05-13T17:48:49.800Z,35.68
2023-05-13T17:51:35.912Z,35.80
2023-05-13T17:54:22.019Z,35.94
2023-05-13T17:57:10.022Z,35.92
2023-05-13T17:59:56.037Z,36.00
2023-05-13T18:02:42.063Z,36.35
2023-05-13T18:05:28.522Z,36.45
2023-05-13T18:08:15.849Z,36.60
2023-05-13T18:11:02.804Z,36.87
2023-05-13T18:13:49.598Z,36.98
2023-05-13T18:16:35.758Z,37.66
2023-05-13T18:19:22.946Z,37.49
2023-05-13T18:22:09.429Z,37.50
2023-05-13T18:24:56.404Z,37.66
2023-05-13T18:27:42.527Z,38.07
2023-05-13T18:30:30.979Z,38.10
2023-05-13T18:33:20.570Z,38.38
2023-05-13T18:36:09.830Z,38.53
2023-05-13T18:38:55.831Z,39.17
2023-05-13T18:41:42.278Z,39.62
2023-05-13T18:44:28.120Z,39.93
2023-05-13T18:47:14.461Z,40.43
2023-05-13T18:50:00.198Z,40.92
2023-05-13T18:52:46.525Z,41.47
2023-05-13T18:55:32.775Z,41.80
2023-05-13T18:58:19.081Z,42.12
2023-05-13T19:01:04.974Z,42.29
2023-05-13T19:03:52.251Z,42.66
2023-05-13T19:06:39.581Z,42.97
2023-05-13T19:09:25.830Z,43.35
2023-05-13T19:12:11.433Z,43.85
2023-05-13T19:14:57.532Z,44.31
2023-05-13T19:17:43.330Z,44.51
2023-05-13T19:20:30.237Z,45.08
2023-05-13T19:23:16.223Z,45.75
2023-05-13T19:26:02.531Z,46.35
2023-05-13T19:28:48.573Z,46.85
2023-05-13T19:31:35.084Z,47.59
2023-05-13T19:34:21.336Z,48.00
2023-05-13T19:37:07.606Z,48.61
2023-05-13T19:39:53.666Z,49.03
2023-05-13T19:42:39.853Z,49.42
2023-05-13T19:45:25.950Z,50.19
2023-05-13T19:48:13.862Z,50.48
2023-05-13T19:51:00.915Z,50.92
2023-05-13T19:53:47.384Z,50.82
2023-05-13T19:56:33.692Z,50.17
2023-05-13T19:59:20.382Z,50.06
2023-05-13T20:02:06.672Z,50.29
2023-05-13T20:04:52.832Z,50.67
2023-05-13T20:07:39.706Z,50.90
2023-05-13T20:10:26.414Z,51.57
2023-05-13T20:13:13.009Z,51.39
2023-05-13T20:16:00.244Z,50.99
2023-05-13T20:18:46.499Z,51.04
2023-05-13T20:21:33.371Z,50.53
2023-05-13T20:24:19.749Z,50.75
2023-05-13T20:27:06.730Z,50.50
2023-05-13T20:29:52.644Z,50.55
2023-05-13T20:32:38.963Z,51.11
2023-05-13T20:35:25.125Z,51.80
2023-05-13T20:38:11.827Z,51.42
2023-05-13T20:40:57.818Z,51.53
2023-05-13T20:43:43.944Z,51.65
2023-05-13T20:46:30.203Z,51.75
2023-05-13T20:49:16.722Z,51.72
2023-05-13T20:52:09.160Z,51.68
2023-05-13T20:54:55.729Z,51.95
2023-05-13T20:57:42.017Z,52.24
2023-05-13T21:00:28.139Z,52.37
2023-05-13T21:03:14.580Z,52.43
2023-05-13T21:06:00.943Z,52.72
2023-05-13T21:08:46.664Z,52.94
2023-05-13T21:11:32.916Z,53.27
2023-05-13T21:14:19.196Z,53.42
2023-05-13T21:17:05.804Z,53.49
2023-05-13T21:19:52.517Z,53.63
2023-05-13T21:22:39.111Z,53.93
2023-05-13T21:25:25.420Z,54.19
2023-05-13T21:28:12.409Z,54.21
2023-05-13T21:31:00.113Z,54.36
2023-05-13T21:33:49.192Z,54.72
2023-05-13T21:36:39.165Z,54.77
2023-05-13T21:39:25.962Z,54.85
2023-05-13T21:42:12.840Z,55.07
2023-05-13T21:44:59.587Z,55.70
2023-05-13T21:47:48.116Z,56.14
2023-05-13T21:50:36.211Z,56.32
2023-05-13T21:53:22.894Z,56.82
2023-05-13T21:56:10.295Z,57.18
2023-05-13T21:58:57.150Z,57.42
2023-05-13T22:01:43.760Z,57.77
2023-05-13T22:04:30.099Z,58.13
2023-05-13T22:07:16.584Z,58.47
2023-05-13T22:10:03.163Z,59.29
2023-05-13T22:12:50.006Z,59.97
2023-05-13T22:15:36.880Z,60.51
2023-05-13T22:18:23.988Z,60.87
2023-05-13T22:21:10.558Z,61.49
2023-05-13T22:23:57.391Z,61.86
2023-05-13T22:26:44.001Z,61.79
2023-05-13T22:29:30.275Z,62.25
2023-05-13T22:32:16.619Z,62.81
2023-05-13T22:35:03.211Z,62.84
2023-05-13T22:37:50.710Z,63.11
2023-05-13T22:40:37.331Z,63.37
2023-05-13T22:43:23.203Z,63.09
2023-05-13T22:46:09.326Z,63.29
2023-05-13T22:48:55.562Z,63.37
2023-05-13T22:51:41.967Z,63.68
2023-05-13T22:54:28.324Z,63.96
2023-05-13T22:57:14.476Z,63.97
2023-05-13T23:00:00.654Z,64.45
2023-05-13T23:02:47.012Z,64.43
2023-05-13T23:05:33.143Z,63.93
2023-05-13T23:08:19.257Z,64.34
2023-05-13T23:11:05.571Z,64.52
2023-05-13T23:13:52.371Z,65.02
2023-05-13T23:16:38.493Z,65.07
2023-05-13T23:19:25.945Z,65.55
2023-05-13T23:22:12.268Z,66.32
2023-05-13T23:24:59.023Z,66.68
2023-05-13T23:27:45.553Z,68.11
2023-05-13T23:30:32.048Z,68.13
2023-05-13T23:33:18.036Z,68.07
2023-05-13T23:36:04.135Z,68.68
2023-05-13T23:38:50.955Z,69.10
2023-05-13T23:41:37.217Z,69.32
2023-05-13T23:44:23.469Z,68.90
2023-05-13T23:47:09.478Z,69.51
2023-05-13T23:49:55.760Z,69.98
2023-05-13T23:52:42.365Z,70.36
2023-05-13T23:55:29.578Z,70.59
2023-05-13T23:58:16.209Z,71.04
